createdAt,value
2023-04-29T00:01:03.472Z,100.00
2023-04-29T00:03:32.517Z,100.00
2023-04-29T00:06:00.163Z,100.00
2023-04-29T00:08:27.116Z,100.00
2023-04-29T00:10:53.689Z,100.00
2023-04-29T00:13:21.176Z,100.00
2023-04-29T00:15:48.003Z,100.00
2023-04-29T00:18:14.550Z,100.00
2023-04-29T00:20:41.076Z,100.00
2023-04-29T00:23:07.681Z,100.00
2023-04-29T00:25:34.602Z,100.00
2023-04-29T00:28:02.154Z,100.00
2023-04-29T00:30:28.969Z,100.00
2023-04-29T00:32:55.571Z,100.00
2023-04-29T00:35:22.361Z,100.00
2023-04-29T00:37:49.317Z,100.00
2023-04-29T00:40:16.347Z,100.00
2023-04-29T00:42:43.397Z,100.00
2023-04-29T00:45:11.463Z,100.00
2023-04-29T00:47:39.000Z,100.00
2023-04-29T00:50:06.635Z,100.00
2023-04-29T00:52:34.175Z,100.00
2023-04-29T00:55:01.914Z,100.00
2023-04-29T00:57:30.025Z,100.00
2023-04-29T00:59:58.774Z,100.00
2023-04-29T01:02:26.745Z,100.00
2023-04-29T01:04:53.652Z,100.00
2023-04-29T01:07:31.568Z,100.00
2023-04-29T01:10:14.296Z,100.00
2023-04-29T01:12:45.523Z,100.00
2023-04-29T01:15:24.201Z,100.00
2023-04-29T01:18:14.765Z,100.00
2023-04-29T01:20:42.092Z,100.00
2023-04-29T01:23:08.590Z,100.00
2023-04-29T01:25:35.528Z,100.00
2023-04-29T01:28:33.830Z,100.00
2023-04-29T01:31:09.456Z,100.00
2023-04-29T01:33:41.626Z,100.00
2023-04-29T01:36:24.072Z,100.00
2023-04-29T01:39:01.447Z,100.00
2023-04-29T01:41:36.191Z,100.00
2023-04-29T01:44:16.785Z,100.00
2023-04-29T01:46:47.546Z,100.00
2023-04-29T01:49:14.219Z,100.00
2023-04-29T01:51:40.845Z,100.00
2023-04-29T01:54:07.505Z,100.00
2023-04-29T01:56:34.161Z,100.00
2023-04-29T01:59:15.555Z,100.00
2023-04-29T02:01:59.228Z,100.00
2023-04-29T02:04:28.465Z,100.00
2023-04-29T02:06:55.156Z,100.00
2023-04-29T02:09:22.063Z,100.00
2023-04-29T02:11:53.518Z,100.00
2023-04-29T02:14:20.121Z,100.00
2023-04-29T02:16:47.099Z,100.00
2023-04-29T02:19:14.514Z,100.00
2023-04-29T02:21:41.185Z,100.00
2023-04-29T02:24:07.717Z,100.00
2023-04-29T02:26:34.396Z,100.00
2023-04-29T02:29:01.023Z,100.00
2023-04-29T02:31:29.045Z,100.00
2023-04-29T02:33:55.757Z,100.00
2023-04-29T02:36:22.494Z,100.00
2023-04-29T02:38:53.929Z,100.00
2023-04-29T02:41:20.914Z,100.00
2023-04-29T02:43:50.816Z,100.00
2023-04-29T02:46:18.631Z,100.00
2023-04-29T02:48:45.615Z,100.00
2023-04-29T02:51:13.323Z,100.00
2023-04-29T02:53:40.109Z,100.00
2023-04-29T02:56:06.710Z,100.00
2023-04-29T02:58:33.356Z,100.00
2023-04-29T03:00:59.959Z,100.00
2023-04-29T03:03:26.758Z,100.00
2023-04-29T03:05:54.239Z,100.00
2023-04-29T03:08:20.907Z,100.00
2023-04-29T03:10:47.542Z,100.00
2023-04-29T03:13:14.258Z,100.00
2023-04-29T03:15:41.011Z,100.00
2023-04-29T03:18:07.750Z,100.00
2023-04-29T03:20:34.394Z,100.00
2023-04-29T03:23:03.209Z,100.00
2023-04-29T03:25:31.162Z,100.00
2023-04-29T03:27:57.887Z,100.00
2023-04-29T03:30:24.566Z,100.00
2023-04-29T03:32:54.593Z,100.00
2023-04-29T03:35:21.396Z,100.00
2023-04-29T03:38:10.853Z,100.00
2023-04-29T03:40:38.314Z,100.00
2023-04-29T03:43:04.917Z,100.00
2023-04-29T03:45:31.492Z,100.00
2023-04-29T03:47:59.615Z,100.00
2023-04-29T03:50:26.231Z,100.00
2023-04-29T03:52:53.313Z,100.00
2023-04-29T03:55:20.023Z,100.00
2023-04-29T03:57:47.543Z,100.00
2023-04-29T04:00:16.988Z,100.00
2023-04-29T04:02:46.813Z,100.00
2023-04-29T04:05:14.129Z,100.00
2023-04-29T04:07:44.445Z,100.00
2023-04-29T04:10:29.962Z,100.00
2023-04-29T04:12:57.712Z,100.00
2023-04-29T04:15:24.448Z,100.00
2023-04-29T04:17:51.188Z,100.00
2023-04-29T04:20:18.179Z,100.00
2023-04-29T04:22:45.209Z,100.00
2023-04-29T04:25:25.316Z,100.00
2023-04-29T04:27:54.383Z,100.00
2023-04-29T04:30:31.820Z,100.00
2023-04-29T04:32:58.407Z,100.00
2023-04-29T04:35:25.140Z,100.00
2023-04-29T04:37:51.693Z,100.00
2023-04-29T04:40:18.229Z,100.00
2023-04-29T04:43:07.410Z,100.00
2023-04-29T04:45:36.577Z,100.00
2023-04-29T04:48:03.868Z,100.00
2023-04-29T04:50:33.091Z,100.00
2023-04-29T04:53:00.847Z,100.00
2023-04-29T04:55:40.795Z,100.00
2023-04-29T04:58:07.624Z,100.00
2023-04-29T05:00:34.651Z,100.00
2023-04-29T05:03:01.262Z,100.00
2023-04-29T05:05:28.016Z,100.00
2023-04-29T05:07:54.502Z,100.00
2023-04-29T05:10:26.883Z,100.00
2023-04-29T05:12:56.365Z,100.00
2023-04-29T05:15:23.011Z,100.00
2023-04-29T05:17:51.952Z,100.00
2023-04-29T05:20:20.330Z,100.00
2023-04-29T05:22:46.947Z,100.00
2023-04-29T05:25:14.484Z,100.00
2023-04-29T05:27:41.399Z,100.00
2023-04-29T05:30:12.420Z,100.00
2023-04-29T05:32:39.286Z,100.00
2023-04-29T05:35:08.252Z,100.00
2023-04-29T05:37:35.565Z,100.00
2023-04-29T05:40:38.288Z,100.00
2023-04-29T05:43:28.019Z,100.00
2023-04-29T05:45:56.349Z,100.00
2023-04-29T05:48:24.961Z,100.00
2023-04-29T05:50:51.733Z,100.00
2023-04-29T05:53:18.325Z,100.00
2023-04-29T05:55:47.632Z,100.00
2023-04-29T05:58:15.164Z,100.00
2023-04-29T06:00:43.688Z,100.00
2023-04-29T06:03:16.926Z,100.00
2023-04-29T06:05:44.144Z,100.00
2023-04-29T06:08:20.392Z,100.00
2023-04-29T06:10:52.951Z,100.00
2023-04-29T06:13:20.133Z,100.00
2023-04-29T06:15:46.970Z,100.00
2023-04-29T06:18:14.766Z,100.00
2023-04-29T06:20:42.670Z,100.00
2023-04-29T06:23:09.368Z,100.00
2023-04-29T06:25:36.271Z,100.00
2023-04-29T06:28:05.394Z,100.00
2023-04-29T06:30:32.163Z,100.00
2023-04-29T06:32:58.819Z,100.00
2023-04-29T06:35:25.683Z,100.00
2023-04-29T06:38:24.732Z,100.00
2023-04-29T06:41:08.344Z,100.00
2023-04-29T06:43:53.601Z,100.00
2023-04-29T06:46:39.501Z,100.00
2023-04-29T06:49:29.461Z,100.00
2023-04-29T06:51:56.069Z,100.00
2023-04-29T06:54:27.565Z,100.00
2023-04-29T06:56:54.455Z,100.00
2023-04-29T06:59:21.015Z,100.00
2023-04-29T07:01:49.575Z,100.00
2023-04-29T07:04:19.689Z,100.00
2023-04-29T07:06:48.139Z,100.00
2023-04-29T07:09:14.977Z,100.00
2023-04-29T07:11:41.980Z,100.00
2023-04-29T07:14:09.394Z,100.00
2023-04-29T07:16:36.030Z,100.00
2023-04-29T07:19:02.814Z,100.00
2023-04-29T07:21:30.635Z,100.00
2023-04-29T07:23:59.148Z,100.00
2023-04-29T07:26:25.647Z,100.00
2023-04-29T07:28:52.265Z,100.00
2023-04-29T07:31:18.950Z,100.00
2023-04-29T07:33:47.251Z,100.00
2023-04-29T07:36:13.813Z,100.00
2023-04-29T07:38:40.474Z,100.00
2023-04-29T07:41:07.118Z,100.00
2023-04-29T07:43:33.982Z,100.00
2023-04-29T07:46:00.558Z,100.00
2023-04-29T07:48:27.169Z,100.00
2023-04-29T07:50:54.536Z,100.00
2023-04-29T07:53:21.781Z,100.00
2023-04-29T07:55:50.732Z,100.00
2023-04-29T07:58:18.434Z,100.00
2023-04-29T08:00:45.014Z,100.00
2023-04-29T08:03:12.024Z,100.00
2023-04-29T08:05:38.941Z,100.00
2023-04-29T08:08:05.918Z,100.00
2023-04-29T08:10:32.465Z,100.00
2023-04-29T08:12:59.058Z,100.00
2023-04-29T08:15:25.726Z,100.00
2023-04-29T08:17:52.887Z,100.00
2023-04-29T08:20:19.564Z,100.00
2023-04-29T08:22:46.131Z,100.00
2023-04-29T08:25:12.623Z,100.00
2023-04-29T08:27:39.174Z,100.00
2023-04-29T08:30:06.564Z,100.00
2023-04-29T08:32:34.527Z,100.00
2023-04-29T08:35:01.682Z,100.00
2023-04-29T08:37:28.272Z,100.00
2023-04-29T08:39:54.842Z,100.00
2023-04-29T08:42:36.738Z,100.00
2023-04-29T08:45:04.620Z,100.00
2023-04-29T08:47:33.860Z,100.00
2023-04-29T08:50:05.303Z,100.00
2023-04-29T08:52:32.890Z,100.00
2023-04-29T08:55:02.262Z,100.00
2023-04-29T08:57:39.343Z,100.00
2023-04-29T09:00:08.800Z,100.00
2023-04-29T09:02:41.806Z,100.00
2023-04-29T09:05:11.025Z,100.00
2023-04-29T09:07:42.110Z,100.00
2023-04-29T09:10:09.961Z,100.00
2023-04-29T09:12:36.808Z,100.00
2023-04-29T09:15:04.373Z,100.00
2023-04-29T09:17:45.993Z,100.00
2023-04-29T09:20:22.012Z,100.00
2023-04-29T09:22:57.711Z,100.00
2023-04-29T09:25:24.509Z,100.00
2023-04-29T09:27:51.460Z,100.00
2023-04-29T09:30:19.435Z,100.00
2023-04-29T09:32:47.587Z,100.00
2023-04-29T09:35:28.109Z,100.00
2023-04-29T09:38:09.113Z,100.00
2023-04-29T09:40:46.619Z,100.00
2023-04-29T09:43:18.916Z,100.00
2023-04-29T09:45:47.502Z,100.00
2023-04-29T09:48:15.798Z,100.00
2023-04-29T09:50:44.830Z,100.00
2023-04-29T09:53:12.052Z,100.00
2023-04-29T09:55:53.767Z,100.00
2023-04-29T09:58:38.134Z,100.00
2023-04-29T10:01:05.441Z,100.00
2023-04-29T10:03:37.475Z,100.00
2023-04-29T10:06:06.371Z,100.00
2023-04-29T10:08:34.371Z,100.00
2023-04-29T10:11:03.816Z,100.00
2023-04-29T10:13:31.417Z,100.00
2023-04-29T10:16:11.036Z,100.00
2023-04-29T10:18:41.300Z,100.00
2023-04-29T10:21:12.042Z,100.00
2023-04-29T10:23:41.338Z,100.00
2023-04-29T10:26:11.076Z,100.00
2023-04-29T10:28:40.196Z,100.00
2023-04-29T10:31:08.098Z,100.00
2023-04-29T10:33:35.735Z,100.00
2023-04-29T10:36:03.312Z,100.00
2023-04-29T10:38:36.900Z,100.00
2023-04-29T10:41:10.370Z,100.00
2023-04-29T10:43:37.126Z,100.00
2023-04-29T10:46:20.918Z,100.00
2023-04-29T10:48:48.832Z,100.00
2023-04-29T10:51:31.407Z,100.00
2023-04-29T10:54:02.720Z,100.00
2023-04-29T10:56:56.604Z,100.00
2023-04-29T10:59:43.092Z,100.00
2023-04-29T11:02:12.711Z,100.00
2023-04-29T11:05:08.975Z,100.00
2023-04-29T11:07:35.672Z,100.00
2023-04-29T11:10:02.871Z,100.00
2023-04-29T11:12:29.476Z,100.00
2023-04-29T11:15:03.071Z,100.00
2023-04-29T11:17:36.633Z,100.00
2023-04-29T11:20:03.864Z,100.00
2023-04-29T11:22:31.953Z,100.00
2023-04-29T11:25:06.091Z,100.00
2023-04-29T11:27:38.418Z,100.00
2023-04-29T11:30:06.717Z,100.00
2023-04-29T11:32:35.835Z,100.00
2023-04-29T11:35:09.126Z,100.00
2023-04-29T11:37:36.794Z,100.00
2023-04-29T11:40:03.713Z,100.00
2023-04-29T11:42:30.656Z,100.00
2023-04-29T11:44:59.229Z,100.00
2023-04-29T11:47:31.627Z,100.00
2023-04-29T11:50:09.453Z,100.00
2023-04-29T11:52:39.332Z,100.00
2023-04-29T11:55:08.984Z,100.00
2023-04-29T11:57:36.349Z,100.00
2023-04-29T12:00:03.425Z,100.00
2023-04-29T12:02:35.102Z,100.00
2023-04-29T12:05:07.621Z,100.00
2023-04-29T12:07:35.728Z,100.00
2023-04-29T12:10:02.247Z,100.00
2023-04-29T12:12:36.496Z,68.03
2023-04-29T12:15:05.355Z,66.43
2023-04-29T12:17:32.142Z,66.75
2023-04-29T12:19:58.906Z,65.46
2023-04-29T12:22:32.308Z,66.88
2023-04-29T12:24:59.070Z,66.66
2023-04-29T12:27:26.640Z,67.15
2023-04-29T12:29:53.281Z,67.55
2023-04-29T12:32:24.934Z,66.57
2023-04-29T12:34:53.290Z,67.35
2023-04-29T12:37:23.085Z,67.49
2023-04-29T12:39:50.726Z,65.77
2023-04-29T12:42:17.945Z,63.80
2023-04-29T12:44:48.445Z,64.88
2023-04-29T12:47:16.262Z,64.74
2023-04-29T12:49:44.862Z,64.91
2023-04-29T12:52:12.394Z,63.64
2023-04-29T12:54:42.658Z,63.21
2023-04-29T12:57:11.148Z,62.31
2023-04-29T12:59:38.505Z,64.04
2023-04-29T13:02:05.379Z,64.59
2023-04-29T13:04:32.455Z,64.92
2023-04-29T13:07:02.588Z,65.00
2023-04-29T13:09:32.246Z,63.91
2023-04-29T13:11:59.665Z,65.00
2023-04-29T13:14:26.726Z,63.30
2023-04-29T13:16:53.775Z,63.20
2023-04-29T13:19:36.339Z,60.34
2023-04-29T13:22:07.832Z,61.49
2023-04-29T13:24:36.559Z,62.87
2023-04-29T13:27:04.118Z,63.84
2023-04-29T13:29:31.070Z,63.96
2023-04-29T13:31:58.134Z,63.98
2023-04-29T13:34:25.354Z,63.41
2023-04-29T13:36:52.168Z,64.82
2023-04-29T13:39:20.288Z,63.25
2023-04-29T13:41:47.056Z,63.11
2023-04-29T13:46:44.382Z,64.92
2023-04-29T13:49:32.900Z,63.56
2023-04-29T13:54:57.550Z,63.92
2023-04-29T13:58:08.213Z,63.83
2023-04-29T14:00:01.413Z,63.63
2023-04-29T14:02:39.262Z,63.23
2023-04-29T14:05:06.614Z,61.84
2023-04-29T14:07:33.209Z,63.47
2023-04-29T14:09:59.753Z,61.78
2023-04-29T14:12:26.630Z,61.97
2023-04-29T14:14:53.751Z,60.93
2023-04-29T14:17:20.464Z,60.70
2023-04-29T14:19:47.003Z,59.75
2023-04-29T14:22:13.614Z,60.65
2023-04-29T14:24:40.095Z,60.90
2023-04-29T14:27:06.641Z,59.26
2023-04-29T14:29:33.196Z,60.08
2023-04-29T14:31:59.779Z,60.14
2023-04-29T14:34:26.332Z,62.07
2023-04-29T14:36:52.857Z,61.55
2023-04-29T14:39:19.362Z,60.99
2023-04-29T14:41:46.211Z,61.80
2023-04-29T14:44:12.690Z,62.16
2023-04-29T14:46:39.351Z,63.33
2023-04-29T14:49:06.064Z,63.25
2023-04-29T14:51:32.702Z,64.16
2023-04-29T14:53:59.714Z,64.18
2023-04-29T14:56:27.127Z,64.53
2023-04-29T14:58:53.695Z,64.95
2023-04-29T15:01:20.395Z,64.05
2023-04-29T15:03:47.063Z,63.21
2023-04-29T15:06:13.913Z,62.55
2023-04-29T15:08:40.544Z,60.81
2023-04-29T15:11:07.095Z,60.14
2023-04-29T15:13:33.664Z,59.40
2023-04-29T15:16:00.533Z,59.97
2023-04-29T15:18:27.577Z,60.25
2023-04-29T15:20:54.141Z,58.68
2023-04-29T15:23:20.655Z,60.34
2023-04-29T15:25:47.407Z,60.02
2023-04-29T15:28:13.905Z,60.71
2023-04-29T15:30:40.530Z,61.26
2023-04-29T15:33:07.147Z,59.38
2023-04-29T15:35:34.592Z,58.69
2023-04-29T15:38:01.364Z,59.87
2023-04-29T15:40:27.970Z,60.35
2023-04-29T15:42:54.554Z,60.88
2023-04-29T15:45:21.233Z,59.32
2023-04-29T15:47:47.859Z,59.27
2023-04-29T15:50:14.455Z,58.98
2023-04-29T15:52:41.209Z,59.15
2023-04-29T15:55:08.214Z,59.63
2023-04-29T15:57:41.380Z,59.73
2023-04-29T16:00:09.163Z,60.12
2023-04-29T16:02:35.758Z,59.72
2023-04-29T16:05:03.069Z,59.91
2023-04-29T16:07:30.828Z,57.83
2023-04-29T16:09:57.945Z,57.80
2023-04-29T16:12:25.210Z,58.40
2023-04-29T16:14:52.422Z,58.30
2023-04-29T16:17:21.983Z,58.90
2023-04-29T16:19:52.956Z,59.75
2023-04-29T16:22:19.682Z,59.79
2023-04-29T16:24:49.258Z,59.85
2023-04-29T16:27:17.019Z,59.28
2023-04-29T16:29:43.601Z,59.89
2023-04-29T16:32:10.108Z,60.50
2023-04-29T16:34:37.323Z,60.30
2023-04-29T16:37:03.953Z,58.97
2023-04-29T16:39:31.071Z,59.11
2023-04-29T16:41:59.351Z,58.83
2023-04-29T16:44:26.035Z,58.94
2023-04-29T16:46:52.819Z,58.90
2023-04-29T16:49:25.344Z,57.35
2023-04-29T16:51:52.260Z,59.35
2023-04-29T16:54:18.783Z,58.60
2023-04-29T16:56:45.377Z,58.51
2023-04-29T16:59:12.443Z,60.17
2023-04-29T17:01:39.700Z,60.30
2023-04-29T17:04:08.857Z,60.14
2023-04-29T17:06:37.162Z,59.39
2023-04-29T17:09:04.018Z,58.88
2023-04-29T17:11:30.565Z,58.14
2023-04-29T17:13:57.112Z,58.47
2023-04-29T17:16:23.763Z,58.56
2023-04-29T17:18:50.292Z,58.13
2023-04-29T17:21:16.872Z,58.53
2023-04-29T17:23:43.350Z,58.77
2023-04-29T17:26:09.915Z,58.50
2023-04-29T17:28:36.664Z,58.55
2023-04-29T17:31:03.599Z,58.67
2023-04-29T17:33:38.461Z,58.04
2023-04-29T17:36:05.986Z,58.96
2023-04-29T17:38:35.828Z,59.26
2023-04-29T17:41:02.644Z,60.14
2023-04-29T17:43:32.251Z,59.63
2023-04-29T17:45:59.125Z,60.33
2023-04-29T17:48:25.719Z,59.70
2023-04-29T17:50:52.254Z,59.89
2023-04-29T17:53:18.782Z,58.14
2023-04-29T17:55:46.044Z,56.71
2023-04-29T17:58:12.687Z,56.10
2023-04-29T18:00:41.527Z,55.32
2023-04-29T18:03:08.254Z,54.86
2023-04-29T18:05:34.840Z,54.90
2023-04-29T18:08:01.367Z,54.54
2023-04-29T18:10:27.931Z,54.60
2023-04-29T18:12:54.413Z,55.27
2023-04-29T18:15:22.950Z,54.54
2023-04-29T18:17:49.802Z,54.10
2023-04-29T18:20:16.383Z,53.11
2023-04-29T18:22:43.030Z,53.89
2023-04-29T18:25:11.002Z,53.58
2023-04-29T18:27:37.514Z,54.17
2023-04-29T18:30:04.487Z,54.08
2023-04-29T18:32:31.059Z,54.08
2023-04-29T18:34:59.480Z,54.74
2023-04-29T18:37:26.088Z,54.51
2023-04-29T18:39:53.079Z,54.34
2023-04-29T18:42:19.755Z,53.24
2023-04-29T18:44:48.129Z,53.26
2023-04-29T18:47:15.114Z,52.69
2023-04-29T18:49:41.890Z,53.57
2023-04-29T18:52:08.655Z,53.35
2023-04-29T18:54:35.510Z,52.79
2023-04-29T18:57:02.511Z,52.05
2023-04-29T18:59:29.681Z,52.37
2023-04-29T19:01:56.557Z,51.90
2023-04-29T19:04:23.330Z,51.73
2023-04-29T19:06:49.935Z,51.79
2023-04-29T19:09:16.557Z,51.62
2023-04-29T19:11:43.136Z,51.92
2023-04-29T19:14:09.700Z,51.74
2023-04-29T19:16:37.373Z,51.54
2023-04-29T19:19:04.403Z,51.90
2023-04-29T19:21:33.132Z,52.13
2023-04-29T19:24:00.203Z,51.76
2023-04-29T19:26:26.982Z,52.13
2023-04-29T19:28:53.896Z,52.86
2023-04-29T19:31:20.612Z,53.39
2023-04-29T19:33:47.974Z,53.37
2023-04-29T19:36:14.495Z,53.54
2023-04-29T19:38:41.206Z,53.32
2023-04-29T19:41:07.757Z,53.43
2023-04-29T19:43:34.509Z,54.33
2023-04-29T19:46:01.049Z,54.03
2023-04-29T19:48:27.574Z,52.97
2023-04-29T19:50:54.124Z,53.45
2023-04-29T19:53:20.688Z,54.09
2023-04-29T19:55:49.084Z,53.68
2023-04-29T19:58:16.494Z,54.50
2023-04-29T20:00:43.100Z,55.20
2023-04-29T20:03:09.872Z,55.86
2023-04-29T20:05:36.481Z,55.36
2023-04-29T20:08:03.116Z,55.15
2023-04-29T20:10:30.059Z,55.42
2023-04-29T20:12:56.893Z,55.41
2023-04-29T20:15:23.415Z,56.21
2023-04-29T20:17:50.659Z,56.04
2023-04-29T20:20:17.352Z,56.33
2023-04-29T20:22:44.035Z,56.85
2023-04-29T20:25:10.673Z,56.81
2023-04-29T20:27:37.239Z,56.78
2023-04-29T20:30:04.169Z,56.22
2023-04-29T20:32:31.148Z,56.01
2023-04-29T20:34:57.718Z,57.07
2023-04-29T20:37:24.419Z,57.13
2023-04-29T20:39:50.999Z,56.64
2023-04-29T20:42:17.747Z,57.33
2023-04-29T20:44:44.345Z,58.44
2023-04-29T20:47:10.924Z,58.00
2023-04-29T20:49:37.585Z,58.49
2023-04-29T20:52:07.862Z,58.15
2023-04-29T20:54:34.604Z,57.72
2023-04-29T20:57:04.620Z,57.44
2023-04-29T20:59:33.099Z,57.67
2023-04-29T21:01:59.986Z,56.99
2023-04-29T21:04:26.751Z,57.44
2023-04-29T21:06:53.313Z,57.11
2023-04-29T21:09:20.282Z,56.77
2023-04-29T21:11:47.836Z,57.37
2023-04-29T21:14:14.470Z,56.37
2023-04-29T21:16:41.285Z,57.69
2023-04-29T21:19:07.868Z,57.93
2023-04-29T21:21:34.403Z,57.81
2023-04-29T21:24:01.270Z,58.21
2023-04-29T21:26:27.898Z,57.97
2023-04-29T21:28:54.489Z,58.37
2023-04-29T21:31:20.987Z,58.39
2023-04-29T21:33:47.543Z,57.67
2023-04-29T21:36:14.152Z,58.08
2023-04-29T21:38:42.577Z,57.86
2023-04-29T21:41:20.689Z,57.85
2023-04-29T21:43:48.796Z,59.35
2023-04-29T21:46:16.504Z,58.78
2023-04-29T21:48:43.517Z,58.43
2023-04-29T21:51:10.168Z,58.75
2023-04-29T21:53:38.037Z,59.22
2023-04-29T21:56:05.903Z,59.31
2023-04-29T21:58:32.556Z,58.70
2023-04-29T22:01:02.850Z,58.83
2023-04-29T22:03:30.369Z,58.45
2023-04-29T22:05:57.662Z,58.64
2023-04-29T22:08:24.309Z,59.83
2023-04-29T22:10:50.798Z,58.77
2023-04-29T22:13:17.403Z,60.31
2023-04-29T22:15:44.133Z,59.48
2023-04-29T22:18:10.759Z,59.91
2023-04-29T22:20:37.329Z,59.47
2023-04-29T22:23:03.961Z,59.64
2023-04-29T22:25:30.548Z,59.39
2023-04-29T22:27:57.147Z,58.06
2023-04-29T22:30:23.685Z,58.23
2023-04-29T22:32:50.347Z,58.80
2023-04-29T22:35:16.983Z,58.79
2023-04-29T22:37:43.709Z,58.66
2023-04-29T22:40:11.814Z,59.72
2023-04-29T22:42:39.390Z,59.91
2023-04-29T22:45:06.612Z,59.73
2023-04-29T22:47:33.198Z,61.03
2023-04-29T22:49:59.704Z,60.36
2023-04-29T22:52:27.344Z,61.25
2023-04-29T22:54:53.916Z,60.61
2023-04-29T22:57:20.643Z,60.69
2023-04-29T22:59:47.338Z,59.90
2023-04-29T23:02:13.938Z,59.62
2023-04-29T23:04:40.524Z,59.77
2023-04-29T23:07:07.192Z,59.63
2023-04-29T23:09:33.664Z,60.79
2023-04-29T23:12:00.254Z,60.14
2023-04-29T23:14:26.800Z,59.86
2023-04-29T23:16:53.434Z,59.96
2023-04-29T23:19:19.990Z,60.07
2023-04-29T23:21:46.632Z,59.55
2023-04-29T23:24:13.167Z,59.89
2023-04-29T23:26:39.763Z,59.30
2023-04-29T23:29:06.294Z,59.24
2023-04-29T23:31:32.989Z,58.96
2023-04-29T23:33:59.560Z,58.22
2023-04-29T23:36:26.136Z,58.53
2023-04-29T23:38:52.655Z,59.03
2023-04-29T23:41:19.209Z,58.69
2023-04-29T23:43:45.712Z,58.49
2023-04-29T23:46:12.357Z,58.50
2023-04-29T23:48:38.965Z,58.58
2023-04-29T23:51:05.550Z,58.17
2023-04-29T23:53:32.164Z,58.64
2023-04-29T23:55:58.917Z,57.85
2023-04-29T23:58:25.604Z,58.22
